createdAt,value
2023-04-10T00:02:21.651Z,7.9
2023-04-10T00:04:22.940Z,7.9
2023-04-10T00:06:23.991Z,7.9
2023-04-10T00:08:28.433Z,7.9
2023-04-10T00:10:29.673Z,7.9
2023-04-10T00:12:31.369Z,7.8
2023-04-10T00:14:32.572Z,7.8
2023-04-10T00:16:33.813Z,7.8
2023-04-10T00:18:34.965Z,7.8
2023-04-10T00:20:36.204Z,7.7
2023-04-10T00:22:40.633Z,7.7
2023-04-10T00:24:41.833Z,7.7
2023-04-10T00:26:43.042Z,7.7
2023-04-10T00:28:44.253Z,7.7
2023-04-10T00:32:46.762Z,7.7
2023-04-10T00:34:47.879Z,7.7
2023-04-10T00:36:52.316Z,7.8
2023-04-10T00:38:53.531Z,7.8
2023-04-10T00:40:59.034Z,7.7
2023-04-10T00:42:55.945Z,7.7
2023-04-10T00:44:57.133Z,7.7
2023-04-10T00:46:58.352Z,7.7
2023-04-10T00:53:05.215Z,7.7
2023-04-10T00:55:06.449Z,7.6
2023-04-10T00:56:08.680Z,7.6
2023-04-10T01:04:16.803Z,7.6
2023-04-10T01:10:20.378Z,7.5
2023-04-10T01:12:21.625Z,7.5
2023-04-10T01:16:24.080Z,7.5
2023-04-10T01:18:28.488Z,7.4
2023-04-10T01:20:29.666Z,7.4
2023-04-10T01:22:30.912Z,7.4
2023-04-10T01:24:32.099Z,7.4
2023-04-10T01:26:33.291Z,7.4
2023-04-10T01:28:34.499Z,7.4
2023-04-10T01:30:35.793Z,7.4
2023-04-10T01:34:41.500Z,7.3
2023-04-10T01:38:43.810Z,7.3
2023-04-10T01:40:45.018Z,7.3
2023-04-10T01:42:46.209Z,7.3
2023-04-10T01:44:47.401Z,7.4
2023-04-10T01:46:51.913Z,7.4
2023-04-10T01:48:53.089Z,7.4
2023-04-10T01:50:54.283Z,7.5
2023-04-10T01:51:56.506Z,7.5
2023-04-10T01:55:58.916Z,7.4
2023-04-10T01:58:00.158Z,7.4
2023-04-10T02:00:04.647Z,7.4
2023-04-10T02:02:05.860Z,7.4
2023-04-10T02:04:07.067Z,7.4
2023-04-10T02:08:09.682Z,7.4
2023-04-10T02:14:16.264Z,7.4
2023-04-10T02:16:17.564Z,7.4
2023-04-10T02:18:18.725Z,7.4
2023-04-10T02:20:19.917Z,7.5
2023-04-10T02:22:21.105Z,7.5
2023-04-10T02:24:22.325Z,7.5
2023-04-10T02:28:27.995Z,7.4
2023-04-10T02:30:29.196Z,7.4
2023-04-10T02:32:30.411Z,7.4
2023-04-10T02:34:31.625Z,7.4
2023-04-10T02:47:44.355Z,7.4
2023-04-10T02:49:45.507Z,7.4
2023-04-10T02:51:46.699Z,7.4
2023-04-10T02:55:52.367Z,7.3
2023-04-10T02:57:53.584Z,7.3
2023-04-10T02:59:54.817Z,7.3
2023-04-10T03:01:56.131Z,7.3
2023-04-10T03:03:57.721Z,7.3
2023-04-10T03:05:58.427Z,7.3
2023-04-10T03:07:59.602Z,7.2
2023-04-10T03:10:04.083Z,7.2
2023-04-10T03:14:08.326Z,7.2
2023-04-10T03:18:08.900Z,7.2
2023-04-10T03:20:10.115Z,7.2
2023-04-10T03:22:11.290Z,7.2
2023-04-10T03:24:19.639Z,7.2
2023-04-10T03:32:20.573Z,7.1
2023-04-10T03:34:21.789Z,7.2
2023-04-10T03:42:29.830Z,7.1
2023-04-10T03:46:53.477Z,7.2
2023-04-10T03:50:59.051Z,7.1
2023-04-10T03:53:00.273Z,7.1
2023-04-10T03:59:03.858Z,7.1
2023-04-10T04:09:13.117Z,7
2023-04-10T04:13:15.503Z,7
2023-04-10T04:15:17.393Z,6.9
2023-04-10T04:17:17.922Z,6.9
2023-04-10T04:19:22.409Z,6.9
2023-04-10T04:21:23.560Z,6.9
2023-04-10T04:27:27.165Z,6.9
2023-04-10T04:37:36.385Z,6.9
2023-04-10T04:38:38.629Z,6.8
2023-04-10T04:40:39.829Z,6.8
2023-04-10T04:42:41.018Z,6.9
2023-04-10T04:44:42.204Z,6.9
2023-04-10T04:50:49.109Z,6.8
2023-04-10T04:54:51.498Z,6.8
2023-04-10T05:02:59.735Z,6.8
2023-04-10T05:05:00.786Z,6.8
2023-04-10T05:07:02.000Z,6.8
2023-04-10T05:09:03.199Z,6.8
2023-04-10T05:11:04.402Z,6.8
2023-04-10T05:13:05.570Z,6.8
2023-04-10T05:15:10.069Z,6.8
2023-04-10T05:17:11.258Z,6.9
2023-04-10T05:19:12.426Z,6.9
2023-04-10T05:23:14.852Z,6.9
2023-04-10T05:25:16.101Z,6.9
2023-04-10T05:27:17.276Z,6.9
2023-04-10T05:34:26.380Z,7
2023-04-10T05:36:27.604Z,7
2023-04-10T05:38:28.750Z,7
2023-04-10T05:42:34.470Z,7.1
2023-04-10T05:44:35.698Z,7.1
2023-04-10T05:46:36.933Z,7.1
2023-04-10T05:50:39.237Z,7.2
2023-04-10T05:52:40.442Z,7.3
2023-04-10T06:00:48.555Z,7.6
2023-04-10T06:04:52.579Z,7.7
2023-04-10T06:15:01.698Z,8
2023-04-10T06:17:02.975Z,8
2023-04-10T06:19:04.076Z,8.1
2023-04-10T06:30:15.664Z,8.3
2023-04-10T06:32:16.857Z,8.3
2023-04-10T06:34:18.092Z,8.4
2023-04-10T06:36:19.309Z,8.4
2023-04-10T06:38:23.774Z,8.5
2023-04-10T06:40:24.999Z,8.5
2023-04-10T06:42:26.200Z,8.6
2023-04-10T06:44:27.409Z,8.7
2023-04-10T06:46:28.645Z,8.7
2023-04-10T06:48:29.814Z,8.8
2023-04-10T06:50:32.857Z,8.8
2023-04-10T06:52:35.509Z,8.9
2023-04-10T06:54:36.734Z,9
2023-04-10T06:56:37.940Z,9
2023-04-10T07:00:40.372Z,9.3
2023-04-10T07:02:41.587Z,9.5
2023-04-10T07:04:42.789Z,9.5
2023-04-10T07:06:47.288Z,9.5
2023-04-10T07:08:48.501Z,9.6
2023-04-10T07:10:49.712Z,9.8
2023-04-10T07:12:50.942Z,9.8
2023-04-10T07:25:01.639Z,10.1
2023-04-10T07:27:29.853Z,10.4
2023-04-10T07:39:40.443Z,10.8
2023-04-10T07:45:44.123Z,11.1
2023-04-10T07:47:48.708Z,11.2
2023-04-10T07:49:49.869Z,11.2
2023-04-10T07:55:53.575Z,11.4
2023-04-10T07:57:54.757Z,11.5
2023-04-10T07:59:55.968Z,11.6
2023-04-10T08:02:00.623Z,11.7
2023-04-10T08:04:04.688Z,11.7
2023-04-10T08:06:02.958Z,11.8
2023-04-10T08:08:04.198Z,11.9
2023-04-10T08:12:06.660Z,12.5
2023-04-10T08:16:12.460Z,13.6
2023-04-10T08:21:17.058Z,15.2
2023-04-10T08:23:20.861Z,15.2
2023-04-10T08:25:19.551Z,15.1
2023-04-10T08:27:20.685Z,15
2023-04-10T08:29:24.943Z,14.8
2023-04-10T08:33:27.170Z,14.6
2023-04-10T08:35:28.306Z,15
2023-04-10T08:37:29.420Z,14.7
2023-04-10T08:39:30.541Z,14.6
2023-04-10T08:41:31.671Z,14.3
2023-04-10T08:43:35.950Z,14.1
2023-04-10T08:45:37.060Z,14
2023-04-10T08:47:38.212Z,14.1
2023-04-10T08:49:39.293Z,14.1
2023-04-10T08:51:40.387Z,14
2023-04-10T08:53:41.520Z,14
2023-04-10T08:55:42.621Z,14.1
2023-04-10T08:57:54.130Z,14.1
2023-04-10T08:59:48.035Z,14.2
2023-04-10T09:01:49.240Z,14.1
2023-04-10T09:13:58.953Z,15.2
2023-04-10T09:16:00.298Z,15.3
2023-04-10T09:17:02.271Z,15.3
2023-04-10T09:19:05.006Z,15
2023-04-10T09:21:04.418Z,14.1
2023-04-10T09:23:05.561Z,14
2023-04-10T09:25:09.791Z,13.9
2023-04-10T09:45:24.059Z,14.1
2023-04-10T10:05:38.337Z,13.9
2023-04-10T10:09:43.738Z,14.1
2023-04-10T10:11:44.877Z,14
2023-04-10T10:12:47.035Z,14
2023-04-10T10:14:48.107Z,14
2023-04-10T10:18:50.335Z,13.9
2023-04-10T10:20:54.639Z,13.9
2023-04-10T10:22:55.745Z,14
2023-04-10T10:33:01.414Z,14.3
2023-04-10T10:35:05.650Z,14.4
2023-04-10T10:37:06.770Z,14.4
2023-04-10T10:41:08.970Z,14.3
2023-04-10T10:45:11.213Z,14.4
2023-04-10T10:47:12.330Z,14.5
2023-04-10T10:49:16.604Z,14.6
2023-04-10T10:51:17.741Z,14.6
2023-04-10T10:53:18.832Z,14.8
2023-04-10T10:55:20.176Z,14.7
2023-04-10T10:57:21.092Z,14.5
2023-04-10T10:59:22.177Z,14.4
2023-04-10T11:01:23.307Z,14.5
2023-04-10T11:05:28.679Z,14.7
2023-04-10T11:11:58.899Z,14.7
2023-04-10T11:14:00.013Z,14.8
2023-04-10T11:20:06.522Z,15.1
2023-04-10T11:22:07.650Z,15.2
2023-04-10T11:26:09.840Z,15.5
2023-04-10T11:34:17.456Z,15.8
2023-04-10T11:38:19.634Z,16
2023-04-10T11:42:21.874Z,16.8
2023-04-10T11:46:27.337Z,16.9
2023-04-10T11:50:29.458Z,16.7
2023-04-10T11:52:32.093Z,16.8
2023-04-10T11:54:33.172Z,16.7
2023-04-10T12:00:39.651Z,16.7
2023-04-10T12:02:40.821Z,16.9
2023-04-10T12:03:43.038Z,16.9
2023-04-10T12:05:43.983Z,16.9
2023-04-10T12:11:51.726Z,16.8
2023-04-10T12:23:56.979Z,17.1
2023-04-10T12:28:02.365Z,17.2
2023-04-10T12:32:04.541Z,17.2
2023-04-10T12:34:05.656Z,17.4
2023-04-10T12:36:06.725Z,17.3
2023-04-10T12:38:07.791Z,17.4
2023-04-10T12:40:12.065Z,17.5
2023-04-10T12:48:17.248Z,17.5
2023-04-10T12:50:18.343Z,17.4
2023-04-10T12:52:19.404Z,17.3
2023-04-10T12:54:23.659Z,17.1
2023-04-10T12:56:24.759Z,17.1
2023-04-10T12:58:25.890Z,17.2
2023-04-10T12:59:28.034Z,17.2
2023-04-10T13:01:29.168Z,17.2
2023-04-10T13:03:30.300Z,17.2
2023-04-10T13:05:31.250Z,17.3
2023-04-10T13:09:36.612Z,17.4
2023-04-10T13:11:37.689Z,17.2
2023-04-10T13:15:39.880Z,17.1
2023-04-10T13:17:40.991Z,17.1
2023-04-10T13:27:49.572Z,16.8
2023-04-10T13:29:50.685Z,16.8
2023-04-10T13:31:51.858Z,16.8
2023-04-10T13:35:57.161Z,16.6
2023-04-10T13:37:58.188Z,16.5
2023-04-10T13:39:59.297Z,16.5
2023-04-10T13:44:01.486Z,16.5
2023-04-10T13:48:03.792Z,16.4
2023-04-10T13:50:07.980Z,16.3
2023-04-10T13:52:09.059Z,16.3
2023-04-10T13:54:10.133Z,16.4
2023-04-10T13:55:12.279Z,16.3
2023-04-10T13:57:13.346Z,16.3
2023-04-10T13:59:14.507Z,16.3
2023-04-10T14:01:15.651Z,16.3
2023-04-10T14:03:19.904Z,16.3
2023-04-10T14:05:20.969Z,16.3
2023-04-10T14:07:22.059Z,16.3
2023-04-10T14:09:23.252Z,16.3
2023-04-10T14:11:24.254Z,16.2
2023-04-10T14:13:25.367Z,16.2
2023-04-10T14:15:26.455Z,16.1
2023-04-10T14:19:31.840Z,16
2023-04-10T14:23:34.041Z,15.9
2023-04-10T14:25:35.166Z,15.8
2023-04-10T14:27:36.268Z,15.8
2023-04-10T14:29:42.512Z,15.9
2023-04-10T14:31:56.705Z,15.9
2023-04-10T14:33:42.763Z,15.9
2023-04-10T14:49:54.739Z,16.2
2023-04-10T14:52:22.731Z,16.3
2023-04-10T14:54:23.854Z,16.3
2023-04-10T14:56:24.907Z,16.4
2023-04-10T14:58:29.224Z,16.5
2023-04-10T15:00:30.320Z,16.6
2023-04-10T15:02:31.491Z,16.5
2023-04-10T15:04:32.759Z,16.4
2023-04-10T15:08:34.723Z,16.5
2023-04-10T15:12:40.117Z,15.9
2023-04-10T15:14:41.206Z,15.8
2023-04-10T15:20:44.526Z,14.6
2023-04-10T15:22:45.637Z,14.5
2023-04-10T15:26:51.023Z,14.1
2023-04-10T15:28:52.140Z,13.8
2023-04-10T15:30:53.284Z,13.5
2023-04-10T15:32:54.429Z,13.5
2023-04-10T15:34:55.483Z,13.4
2023-04-10T15:36:56.646Z,13.3
2023-04-10T15:38:57.758Z,13
2023-04-10T15:45:04.294Z,12.4
2023-04-10T15:46:06.441Z,12.4
2023-04-10T15:48:07.575Z,12.4
2023-04-10T15:52:09.801Z,12.6
2023-04-10T16:00:17.579Z,12.5
2023-04-10T16:04:19.997Z,12.3
2023-04-10T16:08:25.407Z,12.2
2023-04-10T16:10:26.532Z,12.2
2023-04-10T16:12:27.752Z,12.2
2023-04-10T16:16:30.375Z,12.3
2023-04-10T16:26:39.602Z,12.5
2023-04-10T16:30:42.094Z,12.5
2023-04-10T16:34:44.568Z,12.5
2023-04-10T16:36:49.090Z,12.5
2023-04-10T16:38:50.338Z,12.5
2023-04-10T16:40:51.548Z,12.5
2023-04-10T16:41:53.796Z,12.2
2023-04-10T16:43:55.030Z,12.2
2023-04-10T16:45:56.243Z,12.2
2023-04-10T16:47:57.536Z,12.2
2023-04-10T16:50:02.006Z,12.3
2023-04-10T16:52:03.251Z,12.3
2023-04-10T16:54:04.462Z,12.3
2023-04-10T16:56:05.735Z,12.3
2023-04-10T17:12:18.917Z,11.9
2023-04-10T17:26:30.811Z,11.2
2023-04-10T17:28:32.057Z,11.1
2023-04-10T17:30:33.273Z,11.1
2023-04-10T17:32:37.814Z,11
2023-04-10T17:34:38.984Z,10.9
2023-04-10T17:36:40.238Z,10.9
2023-04-10T17:37:42.499Z,10.9
2023-04-10T17:41:46.488Z,10.8
2023-04-10T17:45:52.134Z,10.8
2023-04-10T17:55:58.315Z,10.7
2023-04-10T17:57:59.521Z,10.8
2023-04-10T18:06:07.696Z,10.8
2023-04-10T18:12:11.378Z,10.8
2023-04-10T18:18:18.354Z,10.7
2023-04-10T18:20:19.571Z,10.7
2023-04-10T18:22:20.755Z,10.7
2023-04-10T18:24:22.015Z,10.7
2023-04-10T18:26:23.240Z,10.7
2023-04-10T18:28:27.719Z,10.7
2023-04-10T18:30:29.028Z,10.7
2023-04-10T18:32:30.183Z,10.7
2023-04-10T18:34:58.454Z,10.7
2023-04-10T18:36:59.713Z,10.7
2023-04-10T18:41:05.413Z,10.7
2023-04-10T18:43:06.655Z,10.7
2023-04-10T18:45:07.881Z,10.7
2023-04-10T18:47:09.178Z,10.7
2023-04-10T18:53:12.797Z,10.6
2023-04-10T18:55:17.299Z,10.6
2023-04-10T18:57:18.544Z,10.6
2023-04-10T18:59:19.750Z,10.6
2023-04-10T19:01:21.080Z,10.6
2023-04-10T19:03:22.365Z,10.5
2023-04-10T19:05:23.436Z,10.6
2023-04-10T19:07:24.702Z,10.5
2023-04-10T19:09:29.231Z,10.5
2023-04-10T19:11:30.435Z,10.5
2023-04-10T19:13:31.687Z,10.5
2023-04-10T19:15:32.992Z,10.5
2023-04-10T19:19:35.345Z,10.4
2023-04-10T19:21:36.585Z,10.5
2023-04-10T19:23:41.091Z,10.5
2023-04-10T19:27:43.526Z,10.5
2023-04-10T19:28:45.795Z,10.5
2023-04-10T19:30:47.101Z,10.5
2023-04-10T19:36:53.963Z,10.5
2023-04-10T19:40:56.472Z,10.6
2023-04-10T19:42:59.240Z,10.6
2023-04-10T19:44:58.915Z,10.6
2023-04-10T19:47:00.267Z,10.5
2023-04-10T19:49:01.433Z,10.5
2023-04-10T19:53:07.159Z,10.5
2023-04-10T19:55:08.340Z,10.5
2023-04-10T19:57:09.612Z,10.5
2023-04-10T19:59:10.886Z,10.5
2023-04-10T20:01:12.086Z,10.5
2023-04-10T20:05:17.853Z,10.5
2023-04-10T20:07:19.065Z,10.5
2023-04-10T20:21:30.994Z,10.5
2023-04-10T20:23:32.243Z,10.5
2023-04-10T20:24:34.472Z,10.5
2023-04-10T20:26:35.714Z,10.5
2023-04-10T20:28:36.971Z,10.5
2023-04-10T20:30:38.180Z,10.4
2023-04-10T20:34:43.925Z,10.4
2023-04-10T20:38:46.364Z,10.4
2023-04-10T20:40:47.625Z,10.4
2023-04-10T20:42:48.826Z,10.4
2023-04-10T20:44:50.074Z,10.4
2023-04-10T20:46:54.679Z,10.4
2023-04-10T20:48:56.017Z,10.4
2023-04-10T20:52:58.287Z,10.4
2023-04-10T20:54:59.530Z,10.4
2023-04-10T20:59:01.954Z,10.4
2023-04-10T21:01:06.460Z,10.4
2023-04-10T21:05:08.912Z,10.4
2023-04-10T21:07:10.153Z,10.3
2023-04-10T21:09:11.377Z,10.4
2023-04-10T21:11:12.628Z,10.3
2023-04-10T21:13:13.904Z,10.3
2023-04-10T21:15:18.354Z,10.3
2023-04-10T21:17:19.637Z,10.3
2023-04-10T21:19:20.810Z,10.3
2023-04-10T21:20:23.074Z,10.3
2023-04-10T21:22:24.298Z,10.3
2023-04-10T21:30:32.487Z,10.3
2023-04-10T21:38:37.467Z,10.3
2023-04-10T21:40:38.745Z,10.3
2023-04-10T21:42:43.201Z,10.2
2023-04-10T21:44:44.424Z,10.2
2023-04-10T21:46:45.661Z,10.2
2023-04-10T21:50:48.128Z,10.2
2023-04-10T21:52:49.354Z,10.2
2023-04-10T21:58:56.425Z,10.2
2023-04-10T22:00:57.567Z,10.2
2023-04-10T22:09:02.463Z,10.1
2023-04-10T22:13:10.329Z,10.2
2023-04-10T22:15:09.341Z,10.2
2023-04-10T22:17:37.579Z,10.1
2023-04-10T22:19:38.718Z,10.1
2023-04-10T22:23:44.450Z,10.1
2023-04-10T22:30:02.075Z,10.1
2023-04-10T22:31:49.373Z,10.1
2023-04-10T22:35:51.851Z,10.1
2023-04-10T22:37:56.323Z,10
2023-04-10T22:39:57.580Z,10.1
2023-04-10T22:41:58.763Z,10
2023-04-10T22:43:59.988Z,10.1
2023-04-10T22:46:01.261Z,10
2023-04-10T22:48:02.480Z,10.1
2023-04-10T22:50:03.664Z,10
2023-04-10T22:52:08.155Z,10
2023-04-10T22:54:09.379Z,10
2023-04-10T22:56:10.575Z,10
2023-04-10T22:58:11.820Z,10
2023-04-10T23:00:13.049Z,10
2023-04-10T23:02:14.323Z,10
2023-04-10T23:04:15.517Z,9.9
2023-04-10T23:06:19.975Z,8.2
2023-04-10T23:08:21.226Z,8.1
2023-04-10T23:10:22.418Z,8
2023-04-10T23:11:24.682Z,8.2
2023-04-10T23:13:25.885Z,8.3
2023-04-10T23:15:27.112Z,8.3
2023-04-10T23:17:28.368Z,8.4
2023-04-10T23:19:32.847Z,8.4
2023-04-10T23:21:34.045Z,8.3
2023-04-10T23:23:35.266Z,8.3
2023-04-10T23:25:36.693Z,8.2
2023-04-10T23:27:37.697Z,8.2
2023-04-10T23:29:38.979Z,8.1
2023-04-10T23:31:41.779Z,8
2023-04-10T23:33:46.146Z,8
2023-04-10T23:35:47.488Z,8
2023-04-10T23:37:48.606Z,7.9
2023-04-10T23:39:49.805Z,7.9
2023-04-10T23:41:51.000Z,7.9
2023-04-10T23:43:52.222Z,7.9
2023-04-10T23:45:53.454Z,7.8
2023-04-10T23:47:57.975Z,7.7
2023-04-10T23:49:59.135Z,7.7
2023-04-10T23:52:00.359Z,7.7
2023-04-10T23:54:01.540Z,7.7
2023-04-10T23:56:02.763Z,7.6
2023-04-10T23:58:03.997Z,7.6
